createdAt,value
2019-01-19T06:41:25.662Z,99.90
2019-01-19T06:43:59.044Z,99.90
2019-01-19T06:46:31.786Z,99.90
2019-01-19T06:49:05.175Z,99.90
2019-01-19T06:51:37.864Z,99.90
2019-01-19T06:54:11.478Z,99.90
2019-01-19T06:56:44.134Z,99.90
2019-01-19T06:59:17.634Z,99.90
2019-01-19T07:01:52.874Z,99.90
2019-01-19T07:04:25.996Z,99.90
2019-01-19T07:07:02.826Z,99.90
2019-01-19T07:09:35.650Z,99.90
2019-01-19T07:12:10.010Z,99.90
2019-01-19T07:14:42.883Z,99.90
2019-01-19T07:17:16.778Z,99.90
2019-01-19T07:19:50.344Z,99.90
2019-01-19T07:22:25.390Z,99.90
2019-01-19T07:25:00.299Z,99.90
2019-01-19T07:27:33.009Z,99.90
2019-01-19T07:30:09.680Z,99.90
2019-01-19T07:32:43.505Z,99.90
2019-01-19T07:35:17.389Z,99.90
2019-01-19T07:37:50.061Z,99.90
2019-01-19T07:40:22.757Z,99.90
2019-01-19T07:42:55.534Z,99.90
2019-01-19T07:45:28.218Z,99.90
2019-01-19T07:48:00.899Z,99.90
2019-01-19T07:50:33.609Z,99.90
2019-01-19T07:53:08.082Z,99.90
2019-01-19T07:55:40.780Z,99.90
2019-01-19T07:58:13.498Z,99.90
2019-01-19T08:00:46.182Z,99.90
2019-01-19T08:03:19.503Z,99.90
2019-01-19T08:05:52.255Z,99.90
2019-01-19T08:08:25.051Z,99.90
2019-01-19T08:10:57.918Z,99.90
2019-01-19T08:13:33.087Z,99.90
2019-01-19T08:16:05.771Z,99.90
2019-01-19T08:18:38.466Z,99.90
2019-01-19T08:21:12.223Z,99.90
2019-01-19T08:23:44.927Z,99.90
2019-01-19T08:26:17.703Z,99.90
2019-01-19T08:28:50.791Z,99.90
2019-01-19T08:31:23.476Z,99.90
2019-01-19T08:33:56.199Z,99.90
2019-01-19T08:36:30.974Z,99.90
2019-01-19T08:39:06.541Z,99.90
2019-01-19T08:41:41.607Z,99.90
2019-01-19T08:44:14.752Z,99.90
2019-01-19T08:46:47.508Z,99.90
2019-01-19T08:49:20.215Z,99.90
2019-01-19T08:51:52.965Z,99.90
2019-01-19T08:54:25.635Z,99.90
2019-01-19T08:56:58.347Z,99.90
2019-01-19T08:59:31.071Z,99.90
2019-01-19T09:02:04.043Z,99.90
2019-01-19T09:04:37.528Z,99.90
2019-01-19T09:07:10.273Z,99.90
2019-01-19T09:09:43.127Z,99.90
2019-01-19T09:12:16.185Z,99.90
2019-01-19T09:14:49.220Z,99.90
2019-01-19T09:17:22.287Z,99.90
2019-01-19T09:19:56.121Z,99.90
2019-01-19T09:22:32.055Z,99.90
2019-01-19T09:25:07.386Z,99.90
2019-01-19T09:27:42.775Z,99.90
2019-01-19T09:30:17.958Z,99.90
2019-01-19T09:32:50.651Z,99.90
2019-01-19T09:35:24.838Z,99.90
2019-01-19T09:37:57.515Z,99.90
2019-01-19T09:40:32.666Z,99.90
2019-01-19T09:43:05.319Z,99.90
2019-01-19T09:45:38.379Z,99.90
2019-01-19T09:48:13.122Z,99.90
2019-01-19T09:50:45.827Z,99.90
2019-01-19T09:53:20.857Z,99.90
2019-01-19T09:55:57.903Z,99.90
2019-01-19T09:58:30.669Z,99.90
2019-01-19T10:01:03.397Z,99.90
2019-01-19T10:03:36.394Z,99.90
2019-01-19T10:06:10.542Z,99.90
2019-01-19T10:08:44.097Z,99.90
2019-01-19T10:11:17.221Z,99.90
2019-01-19T10:13:49.938Z,99.90
2019-01-19T10:16:22.611Z,99.90
2019-01-19T10:18:55.395Z,99.90
2019-01-19T10:21:28.135Z,99.90
2019-01-19T10:24:00.855Z,99.90
2019-01-19T10:26:33.505Z,99.90
2019-01-19T10:29:08.330Z,99.90
2019-01-19T10:31:41.024Z,99.90
2019-01-19T10:34:13.703Z,99.90
2019-01-19T10:36:47.987Z,99.90
2019-01-19T10:39:20.785Z,99.90
2019-01-19T10:41:55.196Z,99.90
2019-01-19T10:44:27.895Z,99.90
2019-01-19T10:47:03.781Z,99.90
2019-01-19T10:49:36.712Z,99.90
2019-01-19T10:52:09.455Z,99.90
2019-01-19T10:57:15.524Z,99.90
2019-01-19T10:59:49.163Z,99.90
2019-01-19T11:02:21.942Z,99.90
2019-01-19T11:04:59.091Z,99.90
2019-01-19T11:07:31.952Z,99.90
2019-01-19T11:10:17.427Z,99.90
2019-01-19T11:12:50.153Z,99.90
2019-01-19T11:15:25.142Z,99.90
2019-01-19T11:17:57.890Z,99.90
2019-01-19T11:20:30.591Z,99.90
2019-01-19T11:23:03.363Z,99.90
2019-01-19T11:25:36.115Z,99.90
2019-01-19T11:28:10.467Z,99.90
2019-01-19T11:30:43.231Z,99.90
2019-01-19T11:33:15.880Z,99.90
2019-01-19T11:35:48.593Z,99.90
2019-01-19T11:38:21.378Z,99.90
2019-01-19T11:40:54.638Z,99.90
2019-01-19T11:43:28.447Z,99.90
2019-01-19T11:46:01.204Z,99.90
2019-01-19T11:48:33.860Z,99.90
2019-01-19T11:51:06.635Z,99.90
2019-01-19T11:53:39.327Z,99.90
2019-01-19T11:56:14.275Z,99.90
2019-01-19T11:58:50.536Z,99.90
2019-01-19T12:01:23.216Z,99.90
2019-01-19T12:03:55.925Z,99.90
2019-01-19T12:06:28.632Z,99.90
2019-01-19T12:09:01.305Z,99.90
2019-01-19T12:11:34.115Z,99.90
2019-01-19T12:14:06.750Z,99.90
2019-01-19T12:16:39.720Z,99.90
2019-01-19T12:19:12.542Z,99.90
2019-01-19T12:21:47.576Z,99.90
2019-01-19T12:24:20.715Z,99.90
2019-01-19T12:26:53.630Z,99.90
2019-01-19T12:29:26.334Z,99.90
2019-01-19T12:31:59.087Z,99.90
2019-01-19T12:34:32.147Z,99.90
2019-01-19T12:37:04.919Z,99.90
2019-01-19T12:39:37.631Z,99.90
2019-01-19T12:42:10.339Z,99.90
2019-01-19T12:44:44.801Z,99.90
2019-01-19T12:47:17.823Z,99.90
2019-01-19T12:49:51.726Z,99.90
2019-01-19T12:52:24.519Z,99.90
2019-01-19T12:54:59.279Z,99.90
2019-01-19T12:57:31.990Z,99.90
2019-01-19T13:00:06.274Z,99.90
2019-01-19T13:02:39.063Z,99.90
2019-01-19T13:05:18.996Z,99.90
2019-01-19T13:07:52.123Z,99.90
2019-01-19T13:10:32.821Z,99.90
2019-01-19T13:13:09.332Z,99.90
2019-01-19T13:16:19.030Z,99.90
2019-01-19T13:19:24.890Z,99.90
2019-01-19T13:22:46.099Z,99.90
2019-01-19T13:25:58.923Z,99.90
2019-01-19T13:29:11.993Z,99.70
2019-01-19T13:32:17.987Z,99.90
2019-01-19T13:35:31.234Z,99.90
2019-01-19T13:38:41.562Z,99.90
2019-01-19T13:42:06.161Z,99.90
2019-01-19T13:45:17.619Z,99.70
2019-01-19T13:48:43.221Z,99.40
2019-01-19T13:51:39.180Z,99.40
2019-01-19T13:55:02.131Z,99.90
2019-01-19T13:57:48.387Z,99.90
2019-01-19T14:01:08.453Z,99.80
2019-01-19T14:04:04.422Z,99.40
2019-01-19T14:07:14.495Z,98.80
2019-01-19T14:10:07.166Z,98.50
2019-01-19T14:13:29.072Z,98.70
2019-01-19T14:16:28.170Z,98.30
2019-01-19T14:20:01.180Z,98.30
2019-01-19T14:23:10.356Z,98.60
2019-01-19T14:26:29.257Z,97.70
2019-01-19T14:29:36.529Z,96.40
2019-01-19T14:32:44.983Z,96.60
2019-01-19T14:36:04.955Z,96.90
2019-01-19T14:39:21.470Z,96.00
2019-01-19T14:42:24.147Z,96.30
2019-01-19T14:45:21.138Z,97.00
2019-01-19T14:48:30.285Z,97.70
2019-01-19T14:51:43.676Z,96.80
2019-01-19T14:54:32.863Z,96.90
2019-01-19T14:57:51.835Z,97.10
2019-01-19T15:00:50.806Z,97.40
2019-01-19T15:04:01.870Z,96.20
2019-01-19T15:07:17.383Z,96.60
2019-01-19T15:10:30.407Z,95.90
2019-01-19T15:13:32.839Z,96.60
2019-01-19T15:17:02.428Z,96.50
2019-01-19T15:20:11.594Z,96.90
2019-01-19T15:23:14.054Z,97.10
2019-01-19T15:26:17.660Z,97.00
2019-01-19T15:29:33.655Z,96.80
2019-01-19T15:32:49.625Z,96.00
2019-01-19T15:35:55.187Z,95.90
2019-01-19T15:38:47.545Z,97.70
2019-01-19T15:41:50.740Z,98.00
2019-01-19T15:44:43.674Z,98.90
2019-01-19T15:47:49.572Z,99.90
2019-01-19T15:50:54.457Z,99.90
2019-01-19T15:53:41.481Z,99.90
2019-01-19T15:57:04.570Z,99.90
2019-01-19T16:00:24.592Z,99.90
2019-01-19T16:03:29.877Z,99.90
2019-01-19T16:06:35.946Z,99.90
2019-01-19T16:09:32.885Z,99.90
2019-01-19T16:12:22.054Z,99.90
2019-01-19T16:15:50.142Z,99.90
2019-01-19T16:19:25.690Z,99.90
2019-01-19T16:22:29.083Z,99.90
2019-01-19T16:25:58.564Z,99.90
2019-01-19T16:29:22.014Z,99.90
2019-01-19T16:32:26.082Z,99.90
2019-01-19T16:35:18.104Z,99.90
2019-01-19T16:38:31.026Z,99.90
2019-01-19T16:41:53.031Z,99.90
2019-01-19T16:45:10.059Z,99.90
2019-01-19T16:48:33.212Z,99.90
2019-01-19T16:51:54.975Z,99.90
2019-01-19T16:55:05.452Z,99.90
2019-01-19T16:58:13.468Z,99.90
2019-01-19T17:01:26.774Z,99.90
2019-01-19T17:04:35.778Z,99.90
2019-01-19T17:07:55.198Z,99.90
2019-01-19T17:10:53.517Z,99.90
2019-01-19T17:14:07.219Z,99.90
2019-01-19T17:17:18.510Z,99.90
2019-01-19T17:20:15.703Z,99.90
2019-01-19T17:23:05.443Z,99.90
2019-01-19T17:26:16.708Z,99.90
2019-01-19T17:29:16.334Z,99.90
2019-01-19T17:32:25.016Z,99.90
2019-01-19T17:35:30.591Z,99.90
2019-01-19T17:38:53.675Z,99.90
2019-01-19T17:42:03.345Z,99.90
2019-01-19T17:44:51.947Z,99.90
2019-01-19T17:48:02.744Z,99.90
2019-01-19T17:51:11.519Z,99.90
2019-01-19T17:54:11.361Z,99.90
2019-01-19T17:56:58.695Z,99.90
2019-01-19T18:00:13.001Z,99.90
2019-01-19T18:03:07.084Z,99.90
2019-01-19T18:06:14.234Z,99.90
2019-01-19T18:09:09.605Z,99.90
2019-01-19T18:12:34.462Z,99.90
2019-01-19T18:15:30.520Z,99.90
2019-01-19T18:18:43.095Z,99.90
2019-01-19T18:21:37.334Z,99.90
2019-01-19T18:24:53.718Z,99.90
2019-01-19T18:27:50.997Z,99.90
2019-01-19T18:30:50.439Z,99.90
2019-01-19T18:33:52.835Z,99.90
2019-01-19T18:37:07.391Z,99.90
2019-01-19T18:40:49.098Z,99.90
2019-01-19T18:44:07.290Z,99.90
2019-01-19T18:47:26.214Z,99.90
2019-01-19T18:50:24.728Z,99.90
2019-01-19T18:53:31.619Z,99.90
2019-01-19T18:56:47.298Z,99.90
2019-01-19T18:59:36.406Z,99.90
2019-01-19T19:02:40.699Z,99.90
2019-01-19T19:05:42.423Z,99.90
2019-01-19T19:09:06.496Z,99.90
2019-01-19T19:11:55.080Z,99.90
2019-01-19T19:14:33.689Z,99.90
2019-01-19T19:17:42.059Z,99.90
2019-01-19T19:20:41.974Z,99.90
2019-01-19T19:23:28.256Z,99.90
2019-01-19T19:26:35.357Z,99.90
2019-01-19T19:29:49.486Z,99.90
2019-01-19T19:33:15.956Z,99.90
2019-01-19T19:36:25.575Z,99.90
2019-01-19T19:39:15.539Z,99.90
2019-01-19T19:42:30.389Z,99.90
2019-01-19T19:45:46.912Z,99.90
2019-01-19T19:49:03.655Z,99.90
2019-01-19T19:51:53.954Z,99.90
2019-01-19T19:54:27.515Z,99.90
2019-01-19T19:57:00.167Z,99.90
2019-01-19T19:59:32.902Z,99.90
2019-01-19T20:02:05.854Z,99.90
2019-01-19T20:04:38.519Z,99.90
2019-01-19T20:07:11.236Z,99.90
2019-01-19T20:09:44.047Z,99.90
2019-01-19T20:12:18.323Z,99.90
2019-01-19T20:14:53.754Z,99.90
2019-01-19T20:17:30.604Z,99.90
2019-01-19T20:20:04.377Z,99.90
2019-01-19T20:22:39.655Z,99.90
2019-01-19T20:25:12.611Z,99.90
2019-01-19T20:27:46.298Z,99.90
2019-01-19T20:30:19.268Z,99.90
2019-01-19T20:32:56.142Z,99.90
2019-01-19T20:35:28.868Z,99.90
2019-01-19T20:38:01.550Z,99.90
2019-01-19T20:40:34.206Z,99.90
2019-01-19T20:43:08.875Z,99.90
2019-01-19T20:45:52.061Z,99.90
2019-01-19T20:48:25.057Z,99.90
2019-01-19T20:50:57.816Z,99.90
2019-01-19T20:53:31.635Z,99.90
2019-01-19T20:56:04.937Z,99.90
2019-01-19T20:58:37.610Z,99.90
2019-01-19T21:01:11.010Z,99.90
2019-01-19T21:03:44.171Z,99.90
2019-01-19T21:06:17.672Z,99.90
2019-01-19T21:08:50.669Z,99.90
2019-01-19T21:11:25.242Z,99.90
2019-01-19T21:13:58.615Z,99.90
2019-01-19T21:16:35.894Z,99.90
2019-01-19T21:19:08.928Z,99.90
2019-01-19T21:21:42.123Z,99.90
2019-01-19T21:24:16.870Z,99.90
2019-01-19T21:26:49.524Z,99.90
2019-01-19T21:29:23.599Z,99.90
2019-01-19T21:31:57.980Z,99.90
2019-01-19T21:34:30.856Z,99.90
2019-01-19T21:37:05.787Z,99.90
2019-01-19T21:39:44.544Z,99.90
2019-01-19T21:42:18.256Z,99.90
2019-01-19T21:44:53.907Z,99.90
2019-01-19T21:47:26.767Z,99.90
2019-01-19T21:50:01.398Z,99.90
2019-01-19T21:52:37.261Z,99.90
2019-01-19T21:55:10.205Z,99.90
2019-01-19T21:57:42.852Z,99.90
2019-01-19T22:00:18.311Z,99.90
2019-01-19T22:03:05.403Z,99.90
2019-01-19T22:05:38.441Z,99.90
2019-01-19T22:08:12.038Z,99.90
2019-01-19T22:10:47.856Z,99.90
2019-01-19T22:13:26.519Z,99.90
2019-01-19T22:15:59.993Z,99.90
2019-01-19T22:18:34.990Z,99.90
